createdAt,value
2023-05-24T00:02:04.693Z,60.95
2023-05-24T00:05:10.064Z,60.97
2023-05-24T00:08:15.786Z,61.33
2023-05-24T00:11:21.995Z,61.61
2023-05-24T00:14:27.750Z,61.85
2023-05-24T00:17:36.510Z,62.14
2023-05-24T00:20:42.917Z,61.62
2023-05-24T00:23:51.133Z,62.61
2023-05-24T00:26:57.115Z,61.34
2023-05-24T00:30:02.305Z,60.11
2023-05-24T00:33:08.134Z,59.78
2023-05-24T00:36:13.957Z,59.65
2023-05-24T00:39:19.768Z,58.43
2023-05-24T00:42:26.287Z,57.84
2023-05-24T00:45:33.694Z,57.49
2023-05-24T00:48:39.471Z,58.10
2023-05-24T00:51:45.678Z,59.25
2023-05-24T00:54:50.997Z,60.53
2023-05-24T00:57:57.719Z,59.60
2023-05-24T01:01:05.542Z,59.02
2023-05-24T01:04:11.384Z,58.98
2023-05-24T01:07:45.532Z,57.96
2023-05-24T01:11:15.853Z,58.37
2023-05-24T01:14:37.745Z,57.85
2023-05-24T01:17:38.638Z,58.54
2023-05-24T01:20:47.667Z,58.13
2023-05-24T01:24:11.074Z,57.84
2023-05-24T01:27:23.997Z,57.93
2023-05-24T01:30:28.512Z,59.12
2023-05-24T01:33:33.977Z,59.23
2023-05-24T01:36:39.585Z,58.31
2023-05-24T01:39:45.193Z,58.80
2023-05-24T01:43:04.038Z,58.80
2023-05-24T01:46:40.563Z,59.07
2023-05-24T01:49:48.906Z,59.66
2023-05-24T01:52:56.018Z,59.38
2023-05-24T01:56:03.456Z,59.93
2023-05-24T01:59:09.066Z,59.40
2023-05-24T02:02:14.890Z,59.52
2023-05-24T02:05:21.453Z,59.61
2023-05-24T02:08:27.164Z,59.92
2023-05-24T02:11:31.948Z,59.30
2023-05-24T02:14:38.056Z,59.14
2023-05-24T02:17:44.371Z,58.46
2023-05-24T02:20:52.005Z,58.37
2023-05-24T02:23:57.785Z,59.28
2023-05-24T02:27:02.956Z,60.21
2023-05-24T02:30:09.110Z,60.98
2023-05-24T02:33:15.408Z,59.71
2023-05-24T02:36:21.531Z,58.61
2023-05-24T02:39:26.659Z,57.34
2023-05-24T02:42:32.546Z,57.47
2023-05-24T02:45:37.996Z,56.69
2023-05-24T02:48:36.906Z,56.19
2023-05-24T02:51:35.835Z,56.96
2023-05-24T02:54:41.360Z,57.18
2023-05-24T02:57:48.199Z,57.60
2023-05-24T03:00:55.288Z,57.43
2023-05-24T03:04:00.817Z,56.99
2023-05-24T03:07:06.936Z,56.95
2023-05-24T03:10:14.384Z,57.03
2023-05-24T03:13:18.653Z,56.94
2023-05-24T05:39:20.299Z,43.53
2023-05-24T05:42:26.402Z,43.46
2023-05-24T05:45:32.423Z,43.20
2023-05-24T05:48:38.403Z,42.95
2023-05-24T05:51:46.148Z,42.88
2023-05-24T05:54:54.745Z,42.76
2023-05-24T05:58:01.007Z,42.20
2023-05-24T06:01:07.845Z,41.84
2023-05-24T06:04:14.440Z,41.93
2023-05-24T06:07:20.854Z,42.61
2023-05-24T06:10:28.025Z,43.75
2023-05-24T06:13:34.866Z,43.98
2023-05-24T06:16:41.797Z,43.65
2023-05-24T06:19:40.423Z,44.54
2023-05-24T06:22:47.171Z,45.68
2023-05-24T06:25:53.606Z,45.43
2023-05-24T13:15:35.767Z,61.18
2023-05-24T13:18:41.610Z,60.15
2023-05-24T13:21:48.300Z,59.74
2023-05-24T13:24:54.231Z,58.34
2023-05-24T13:28:00.787Z,60.13
2023-05-24T13:31:07.387Z,60.05
2023-05-24T13:34:12.650Z,59.93
2023-05-24T13:37:18.280Z,59.65
2023-05-24T13:40:25.311Z,59.50
2023-05-24T13:43:31.860Z,58.24
2023-05-24T13:46:37.874Z,56.85
2023-05-24T13:49:44.508Z,55.40
2023-05-24T13:52:50.020Z,55.20
2023-05-24T13:55:56.482Z,53.98
2023-05-24T13:59:03.953Z,54.28
2023-05-24T14:02:09.538Z,55.01
2023-05-24T14:05:26.824Z,54.48
2023-05-24T14:08:22.392Z,55.86
2023-05-24T14:11:28.720Z,57.71
2023-05-24T14:17:36.258Z,58.85
2023-05-24T14:20:44.071Z,58.60
2023-05-24T14:23:51.183Z,58.82
2023-05-24T14:26:57.803Z,58.16
2023-05-24T14:30:03.442Z,55.99
2023-05-24T14:33:09.105Z,55.62
2023-05-24T14:36:15.581Z,55.32
2023-05-24T14:39:22.024Z,55.38
2023-05-24T14:42:27.656Z,55.46
2023-05-24T14:45:34.046Z,55.65
2023-05-24T14:48:33.948Z,55.21
2023-05-24T14:51:38.988Z,54.76
2023-05-24T14:54:45.620Z,54.69
2023-05-24T14:57:50.930Z,54.29
2023-05-24T15:00:57.266Z,54.16
2023-05-24T15:04:02.539Z,54.39
2023-05-24T15:07:07.275Z,54.11
2023-05-24T15:10:13.472Z,54.39
2023-05-24T15:13:20.536Z,54.67
2023-05-24T15:16:26.651Z,53.78
2023-05-24T15:19:32.963Z,54.04
2023-05-24T15:22:41.273Z,54.25
2023-05-24T15:25:47.582Z,54.29
2023-05-24T15:28:54.060Z,54.64
2023-05-24T15:32:00.662Z,53.64
2023-05-24T15:35:07.129Z,52.97
2023-05-24T15:38:13.479Z,52.16
2023-05-24T15:41:19.150Z,53.08
2023-05-24T15:44:25.601Z,52.98
2023-05-24T15:47:33.949Z,52.62
2023-05-24T15:53:51.308Z,53.93
2023-05-24T15:56:57.319Z,54.46
2023-05-24T16:00:04.269Z,53.70
2023-05-24T16:03:13.023Z,54.01
2023-05-24T16:06:19.242Z,54.61
2023-05-24T16:09:25.272Z,54.68
2023-05-24T16:12:33.020Z,55.72
2023-05-24T16:15:39.937Z,55.28
2023-05-24T16:18:45.838Z,55.05
2023-05-24T16:21:53.067Z,54.45
2023-05-24T16:24:59.909Z,55.21
2023-05-24T16:28:07.198Z,55.43
2023-05-24T16:31:12.771Z,55.76
2023-05-24T16:34:18.108Z,56.22
2023-05-24T16:37:24.208Z,59.07
2023-05-24T16:40:30.297Z,61.02
2023-05-24T16:43:36.622Z,61.91
2023-05-24T16:46:44.164Z,62.78
2023-05-24T16:49:50.070Z,62.97
2023-05-24T16:53:00.271Z,64.20
2023-05-24T16:56:07.191Z,65.23
2023-05-24T16:59:12.656Z,65.19
2023-05-24T17:02:18.576Z,65.39
2023-05-24T17:05:24.709Z,65.24
2023-05-24T17:08:33.175Z,65.82
2023-05-24T17:11:39.693Z,65.98
2023-05-24T17:14:44.889Z,67.20
2023-05-24T17:17:51.074Z,68.80
2023-05-24T17:20:57.937Z,69.97
2023-05-24T17:24:03.571Z,70.66
2023-05-24T17:27:11.314Z,71.40
2023-05-24T17:30:16.160Z,71.76
2023-05-24T17:33:23.327Z,72.47
2023-05-24T17:36:29.200Z,72.96
2023-05-24T17:39:34.042Z,72.97
2023-05-24T17:42:40.416Z,74.10
2023-05-24T17:45:45.814Z,74.90
2023-05-24T17:48:54.847Z,75.24
2023-05-24T17:52:01.396Z,75.14
2023-05-24T17:55:07.236Z,74.83
2023-05-24T17:58:12.536Z,75.19
2023-05-24T18:01:13.381Z,75.77
2023-05-24T18:04:18.831Z,76.12
2023-05-24T18:07:26.137Z,76.48
2023-05-24T18:10:32.393Z,76.53
2023-05-24T18:13:36.992Z,77.33
2023-05-24T18:16:41.853Z,77.31
2023-05-24T18:19:48.777Z,77.75
2023-05-24T18:22:55.198Z,78.46
2023-05-24T18:26:00.180Z,78.23
2023-05-24T18:29:03.500Z,77.83
2023-05-24T18:32:09.398Z,78.00
2023-05-24T18:35:14.349Z,77.96
2023-05-24T18:38:20.542Z,77.75
2023-05-24T18:41:25.846Z,78.49
2023-05-24T18:44:31.121Z,78.80
2023-05-24T18:47:38.335Z,79.37
2023-05-24T18:50:43.542Z,79.09
2023-05-24T18:53:48.891Z,80.37
2023-05-24T18:56:48.457Z,81.61
2023-05-24T18:59:55.258Z,82.37
2023-05-24T19:03:02.530Z,82.54
2023-05-24T19:06:08.553Z,83.44
2023-05-24T19:09:14.224Z,82.61
2023-05-24T19:12:19.474Z,82.76
2023-05-24T19:15:26.026Z,82.89
2023-05-24T19:18:32.007Z,83.13
2023-05-24T19:21:38.014Z,85.69
2023-05-24T19:24:42.244Z,86.12
2023-05-24T19:27:59.149Z,86.33
2023-05-24T19:30:55.689Z,87.34
2023-05-24T19:34:03.038Z,87.85
2023-05-24T19:37:08.430Z,89.18
2023-05-24T19:40:15.003Z,89.32
2023-05-24T19:43:22.027Z,89.02
2023-05-24T19:46:28.401Z,90.14
2023-05-24T19:49:33.381Z,90.99
2023-05-24T19:52:38.703Z,90.83
2023-05-24T19:55:45.218Z,90.17
2023-05-24T19:58:51.129Z,90.17
2023-05-24T20:01:58.736Z,90.23
2023-05-24T20:05:05.178Z,90.59
2023-05-24T20:08:11.841Z,90.21
2023-05-24T20:11:18.671Z,90.05
2023-05-24T20:14:25.320Z,90.12
2023-05-24T20:17:31.060Z,91.45
2023-05-24T20:20:37.554Z,91.04
2023-05-24T20:23:44.115Z,91.23
2023-05-24T20:26:51.293Z,91.38
2023-05-24T20:29:57.903Z,92.01
2023-05-24T20:33:03.856Z,92.47
2023-05-24T20:36:10.290Z,92.23
2023-05-24T20:39:15.693Z,90.97
2023-05-24T20:42:21.245Z,90.86
2023-05-24T20:45:26.800Z,90.64
2023-05-24T20:48:33.100Z,90.99
2023-05-24T20:51:39.008Z,91.22
2023-05-24T20:54:44.600Z,88.99
2023-05-24T20:57:52.186Z,89.79
2023-05-24T21:00:59.246Z,89.12
2023-05-24T21:04:04.683Z,88.57
2023-05-24T21:07:11.249Z,87.19
2023-05-24T21:10:16.059Z,87.26
2023-05-24T21:13:22.636Z,86.37
2023-05-24T21:16:29.641Z,85.06
2023-05-24T21:19:35.442Z,83.00
2023-05-24T21:22:41.071Z,82.31
2023-05-24T21:25:47.689Z,82.44
2023-05-24T21:28:53.230Z,82.59
2023-05-24T21:31:59.418Z,82.31
2023-05-24T21:35:05.447Z,81.42
2023-05-24T21:38:05.338Z,86.35
2023-05-24T21:41:12.428Z,86.19
2023-05-24T21:44:20.175Z,86.17
2023-05-24T21:47:25.104Z,86.65
2023-05-24T21:50:30.153Z,87.61
2023-05-24T21:53:35.667Z,87.90
2023-05-24T21:56:41.617Z,87.60
2023-05-24T21:59:47.186Z,87.49
2023-05-24T22:02:47.182Z,88.14
2023-05-24T22:05:52.508Z,88.98
2023-05-24T22:08:57.358Z,88.72
2023-05-24T22:12:03.098Z,89.42
2023-05-24T22:15:09.387Z,88.53
2023-05-24T22:18:16.088Z,88.32
2023-05-24T22:21:22.790Z,88.08
2023-05-24T22:24:28.198Z,88.73
2023-05-24T22:27:34.563Z,88.65
2023-05-24T22:30:42.209Z,87.64
2023-05-24T22:33:48.681Z,88.03
2023-05-24T22:36:54.975Z,87.96
2023-05-24T22:40:01.056Z,87.42
2023-05-24T22:43:08.179Z,90.38
2023-05-24T22:46:13.995Z,91.12
2023-05-24T22:49:21.528Z,90.00
2023-05-24T22:52:28.225Z,88.92
2023-05-24T22:55:33.904Z,88.74
2023-05-24T22:58:40.018Z,88.65
2023-05-24T23:01:46.267Z,88.82
2023-05-24T23:04:46.663Z,88.61
2023-05-24T23:07:55.050Z,87.96
2023-05-24T23:11:01.041Z,88.94
2023-05-24T23:14:07.503Z,90.48
2023-05-24T23:17:13.425Z,90.59
2023-05-24T23:20:21.272Z,91.07
2023-05-24T23:23:28.875Z,91.05
2023-05-24T23:26:34.962Z,89.30
2023-05-24T23:29:40.951Z,88.26
2023-05-24T23:32:47.340Z,89.10
2023-05-24T23:35:47.610Z,88.81
2023-05-24T23:38:55.031Z,90.08
2023-05-24T23:42:00.568Z,90.90
2023-05-24T23:45:05.960Z,91.16
2023-05-24T23:48:11.638Z,91.09
2023-05-24T23:51:17.442Z,89.51
2023-05-24T23:54:22.542Z,90.06
2023-05-24T23:57:30.151Z,90.34
